createdAt,value
2018-06-05T00:02:10.574Z,101297.95
2018-06-05T00:04:37.952Z,101298.70
2018-06-05T00:07:06.043Z,101284.04
2018-06-05T00:09:33.505Z,101293.95
2018-06-05T00:12:00.920Z,101271.37
2018-06-05T00:14:28.407Z,101287.52
2018-06-05T00:16:55.841Z,101294.56
2018-06-05T00:19:23.229Z,101293.02
2018-06-05T00:21:50.672Z,101291.95
2018-06-05T00:24:18.164Z,101289.47
2018-06-05T00:26:45.559Z,101283.85
2018-06-05T00:29:12.928Z,101283.30
2018-06-05T00:31:40.408Z,101280.95
2018-06-05T00:34:07.768Z,101280.77
2018-06-05T00:36:35.138Z,101289.28
2018-06-05T00:39:02.706Z,101273.61
2018-06-05T00:41:30.327Z,101280.06
2018-06-05T00:43:57.964Z,101281.42
2018-06-05T00:46:25.352Z,101284.36
2018-06-05T00:48:52.701Z,101284.41
2018-06-05T00:51:31.414Z,101285.28
2018-06-05T00:53:58.889Z,101278.02
2018-06-05T00:56:26.368Z,101275.55
2018-06-05T00:58:53.795Z,101279.05
2018-06-05T01:01:21.236Z,101278.45
2018-06-05T01:03:48.624Z,101277.92
2018-06-05T01:06:15.995Z,101276.85
2018-06-05T01:08:43.475Z,101279.88
2018-06-05T01:11:10.852Z,101286.58
2018-06-05T01:13:38.272Z,101278.57
2018-06-05T01:16:05.753Z,101284.44
2018-06-05T01:18:33.149Z,101288.07
2018-06-05T01:21:00.491Z,101294.49
2018-06-05T01:23:27.844Z,101298.91
2018-06-05T01:25:55.390Z,101290.53
2018-06-05T01:28:22.810Z,101293.19
2018-06-05T01:30:50.551Z,101289.23
2018-06-05T01:33:17.890Z,101293.02
2018-06-05T01:35:45.262Z,101291.67
2018-06-05T01:38:12.690Z,101286.48
2018-06-05T01:40:40.115Z,101284.72
2018-06-05T01:43:07.483Z,101286.97
2018-06-05T01:45:34.885Z,101290.45
2018-06-05T01:48:02.254Z,101295.27
2018-06-05T01:50:29.743Z,101302.41
2018-06-05T01:52:57.095Z,101303.31
2018-06-05T01:55:24.485Z,101294.49
2018-06-05T01:57:51.904Z,101310.47
2018-06-05T02:00:19.271Z,101306.50
2018-06-05T02:02:46.696Z,101304.27
2018-06-05T02:05:14.125Z,101304.92
2018-06-05T02:07:41.527Z,101300.47
2018-06-05T02:10:08.908Z,101290.73
2018-06-05T02:12:36.309Z,101292.13
2018-06-05T02:15:04.296Z,101293.66
2018-06-05T02:17:31.691Z,101288.42
2018-06-05T02:19:59.092Z,101296.23
2018-06-05T02:22:26.428Z,101286.27
2018-06-05T02:24:54.529Z,101290.08
2018-06-05T02:27:21.916Z,101298.03
2018-06-05T02:29:49.353Z,101299.85
2018-06-05T02:32:16.729Z,101309.69
2018-06-05T02:34:44.256Z,101312.53
2018-06-05T02:37:11.742Z,101300.94
2018-06-05T02:39:39.124Z,101295.86
2018-06-05T02:42:06.547Z,101300.88
2018-06-05T02:44:33.963Z,101302.38
2018-06-05T02:47:01.346Z,101301.42
2018-06-05T02:49:29.216Z,101303.06
2018-06-05T02:51:56.651Z,101297.52
2018-06-05T02:54:24.045Z,101300.69
2018-06-05T02:56:51.423Z,101298.36
2018-06-05T02:59:18.864Z,101297.03
2018-06-05T03:01:46.234Z,101298.50
2018-06-05T03:04:14.161Z,101301.59
2018-06-05T03:06:41.547Z,101298.08
2018-06-05T03:09:08.942Z,101307.81
2018-06-05T03:11:36.276Z,101303.61
2018-06-05T03:14:03.952Z,101304.59
2018-06-05T03:16:31.362Z,101295.91
2018-06-05T03:18:59.304Z,101303.06
2018-06-05T03:21:26.703Z,101308.88
2018-06-05T03:23:54.133Z,101307.94
2018-06-05T03:26:21.467Z,101313.38
2018-06-05T03:28:49.430Z,101313.62
2018-06-05T03:31:16.920Z,101318.14
2018-06-05T03:33:44.361Z,101317.78
2018-06-05T03:36:11.721Z,101321.32
2018-06-05T03:38:39.331Z,101310.23
2018-06-05T03:41:06.682Z,101314.98
2018-06-05T03:43:34.061Z,101308.85
2018-06-05T03:46:01.436Z,101308.81
2018-06-05T03:48:28.826Z,101312.86
2018-06-05T03:50:56.451Z,101310.23
2018-06-05T03:53:24.886Z,101297.99
2018-06-05T03:55:52.260Z,101291.83
2018-06-05T03:58:19.589Z,101299.77
2018-06-05T04:00:47.109Z,101302.39
2018-06-05T04:03:15.549Z,101308.11
2018-06-05T04:05:43.153Z,101305.57
2018-06-05T04:08:10.511Z,101301.75
2018-06-05T04:10:37.901Z,101306.66
2018-06-05T04:13:05.384Z,101304.98
2018-06-05T04:15:32.782Z,101302.09
2018-06-05T04:18:00.175Z,101310.81
2018-06-05T04:20:27.540Z,101314.02
2018-06-05T04:22:54.934Z,101310.39
2018-06-05T04:25:22.462Z,101315.27
2018-06-05T04:27:49.877Z,101309.64
2018-06-05T04:30:17.261Z,101300.70
2018-06-05T04:32:44.864Z,101310.36
2018-06-05T04:35:12.542Z,101314.58
2018-06-05T04:37:39.892Z,101313.84
2018-06-05T04:40:07.306Z,101313.71
2018-06-05T04:42:34.768Z,101306.88
2018-06-05T04:45:02.253Z,101298.18
2018-06-05T04:47:29.754Z,101308.45
2018-06-05T04:49:57.308Z,101302.70
2018-06-05T04:52:24.713Z,101301.16
2018-06-05T04:54:52.140Z,101304.08
2018-06-05T04:57:19.511Z,101301.58
2018-06-05T04:59:46.924Z,101297.55
2018-06-05T05:02:14.301Z,101314.96
2018-06-05T05:04:41.711Z,101311.63
2018-06-05T05:07:09.230Z,101322.53
2018-06-05T05:09:36.772Z,101315.31
2018-06-05T05:12:04.163Z,101314.34
2018-06-05T05:14:31.568Z,101323.02
2018-06-05T05:16:59.015Z,101309.98
2018-06-05T05:19:26.433Z,101318.37
2018-06-05T05:21:54.562Z,101321.34
2018-06-05T05:24:21.957Z,101332.51
2018-06-05T05:26:49.460Z,101331.94
2018-06-05T05:29:17.761Z,101319.94
2018-06-05T05:31:45.169Z,101324.80
2018-06-05T05:34:12.594Z,101323.78
2018-06-05T05:36:39.993Z,101319.72
2018-06-05T05:39:07.461Z,101327.59
2018-06-05T05:41:34.795Z,101323.53
2018-06-05T05:44:02.233Z,101324.25
2018-06-05T05:46:29.646Z,101320.15
2018-06-05T05:48:57.017Z,101327.63
2018-06-05T05:51:24.512Z,101325.97
2018-06-05T05:53:52.007Z,101338.66
2018-06-05T05:56:19.523Z,101334.41
2018-06-05T05:58:47.471Z,101334.62
2018-06-05T06:01:14.958Z,101340.26
2018-06-05T06:03:42.339Z,101337.89
2018-06-05T06:06:09.690Z,101336.67
2018-06-05T06:08:37.069Z,101343.75
2018-06-05T06:11:04.486Z,101349.29
2018-06-05T06:13:31.952Z,101346.62
2018-06-05T06:15:59.356Z,101352.14
2018-06-05T06:18:26.795Z,101354.86
2018-06-05T06:20:54.171Z,101364.49
2018-06-05T06:23:21.561Z,101362.17
2018-06-05T06:25:48.956Z,101363.13
2018-06-05T06:28:16.599Z,101363.20
2018-06-05T06:30:43.944Z,101359.77
2018-06-05T06:33:11.357Z,101365.03
2018-06-05T06:35:38.813Z,101364.88
2018-06-05T06:38:06.277Z,101368.03
2018-06-05T06:40:33.673Z,101369.89
2018-06-05T06:43:01.767Z,101369.53
2018-06-05T06:45:29.237Z,101372.02
2018-06-05T06:47:56.767Z,101377.02
2018-06-05T06:50:24.399Z,101380.97
2018-06-05T06:52:51.918Z,101383.83
2018-06-05T06:55:19.341Z,101382.73
2018-06-05T06:57:47.016Z,101386.02
2018-06-05T07:00:14.444Z,101392.41
2018-06-05T07:02:41.840Z,101389.27
2018-06-05T07:05:09.594Z,101385.13
2018-06-05T07:07:37.307Z,101388.41
2018-06-05T07:10:04.790Z,101384.52
2018-06-05T07:12:32.155Z,101386.50
2018-06-05T07:14:59.584Z,101389.05
2018-06-05T07:17:26.973Z,101392.75
2018-06-05T07:19:54.382Z,101401.51
2018-06-05T07:22:21.788Z,101398.09
2018-06-05T07:24:50.641Z,101391.78
2018-06-05T07:27:18.065Z,101390.06
2018-06-05T07:29:45.524Z,101382.45
2018-06-05T07:32:12.938Z,101386.89
2018-06-05T07:34:40.427Z,101388.13
2018-06-05T07:37:09.109Z,101389.81
2018-06-05T07:39:36.524Z,101391.03
2018-06-05T07:42:04.139Z,101392.53
2018-06-05T07:44:31.588Z,101395.64
2018-06-05T07:46:58.995Z,101397.86
2018-06-05T07:49:26.413Z,101392.19
2018-06-05T07:51:54.482Z,101392.27
2018-06-05T07:54:22.473Z,101386.61
2018-06-05T07:56:49.889Z,101387.70
2018-06-05T07:59:17.238Z,101389.67
2018-06-05T08:01:44.916Z,101387.62
2018-06-05T08:04:12.314Z,101392.52
2018-06-05T08:06:39.712Z,101395.02
2018-06-05T08:09:08.226Z,101397.48
2018-06-05T08:11:35.816Z,101403.53
2018-06-05T08:14:03.217Z,101398.61
2018-06-05T08:16:30.856Z,101398.52
2018-06-05T08:18:58.274Z,101388.84
2018-06-05T08:21:25.689Z,101401.26
2018-06-05T08:23:53.117Z,101410.59
2018-06-05T08:26:20.521Z,101407.55
2018-06-05T08:28:48.165Z,101404.14
2018-06-05T08:31:16.379Z,101402.19
2018-06-05T08:33:43.857Z,101400.10
2018-06-05T08:36:11.287Z,101398.89
2018-06-05T08:38:38.750Z,101398.69
2018-06-05T08:41:06.551Z,101393.98
2018-06-05T08:43:33.994Z,101396.56
2018-06-05T08:46:01.426Z,101396.48
2018-06-05T08:48:29.141Z,101402.03
2018-06-05T08:50:56.572Z,101401.33
2018-06-05T08:53:24.079Z,101403.36
2018-06-05T08:55:51.480Z,101407.70
2018-06-05T08:58:18.949Z,101401.09
2018-06-05T09:00:46.515Z,101406.52
2018-06-05T09:03:13.944Z,101399.73
2018-06-05T09:05:41.427Z,101408.11
2018-06-05T09:08:08.865Z,101405.11
2018-06-05T09:10:36.311Z,101415.42
2018-06-05T09:13:04.450Z,101418.09
2018-06-05T09:15:31.873Z,101419.63
2018-06-05T09:17:59.370Z,101418.31
2018-06-05T09:20:27.233Z,101410.27
2018-06-05T09:22:54.749Z,101412.97
2018-06-05T09:25:22.283Z,101409.23
2018-06-05T09:27:49.757Z,101407.16
2018-06-05T09:30:17.356Z,101407.23
2018-06-05T09:32:44.829Z,101413.20
2018-06-05T09:35:12.289Z,101422.38
2018-06-05T09:37:39.870Z,101415.70
2018-06-05T09:40:07.413Z,101419.02
2018-06-05T09:42:34.884Z,101416.22
2018-06-05T09:45:02.377Z,101420.73
2018-06-05T09:47:30.374Z,101419.50
2018-06-05T09:49:58.770Z,101422.52
2018-06-05T09:52:26.397Z,101423.07
2018-06-05T09:54:54.384Z,101435.48
2018-06-05T09:57:21.854Z,101427.82
2018-06-05T09:59:49.280Z,101430.74
2018-06-05T10:02:16.760Z,101434.97
2018-06-05T10:04:44.278Z,101424.05
2018-06-05T10:07:11.742Z,101431.33
2018-06-05T10:09:39.164Z,101426.95
2018-06-05T10:12:06.589Z,101426.34
2018-06-05T10:14:34.722Z,101436.64
2018-06-05T10:17:02.116Z,101437.34
2018-06-05T10:19:29.582Z,101431.98
2018-06-05T10:21:56.961Z,101434.34
2018-06-05T10:24:24.462Z,101428.05
2018-06-05T10:26:52.425Z,101430.88
2018-06-05T10:29:19.807Z,101437.77
2018-06-05T10:31:47.269Z,101437.91
2018-06-05T10:34:14.788Z,101436.98
2018-06-05T10:36:42.213Z,101435.02
2018-06-05T10:39:09.650Z,101432.91
2018-06-05T10:41:37.038Z,101440.03
2018-06-05T10:44:04.606Z,101436.66
2018-06-05T10:46:32.034Z,101430.67
2018-06-05T10:48:59.449Z,101436.41
2018-06-05T10:51:26.970Z,101440.23
2018-06-05T10:53:54.559Z,101432.36
2018-06-05T10:56:21.935Z,101434.39
2018-06-05T10:58:49.452Z,101432.56
2018-06-05T11:01:16.925Z,101426.78
2018-06-05T11:03:44.346Z,101422.12
2018-06-05T11:06:12.473Z,101420.36
2018-06-05T11:08:39.995Z,101423.77
2018-06-05T11:11:07.444Z,101428.12
2018-06-05T11:13:34.855Z,101430.20
2018-06-05T11:16:02.256Z,101424.25
2018-06-05T11:18:30.399Z,101416.19
2018-06-05T11:20:57.861Z,101417.39
2018-06-05T11:23:25.342Z,101418.27
2018-06-05T11:25:52.744Z,101423.73
2018-06-05T11:28:20.360Z,101416.23
2018-06-05T11:30:48.057Z,101414.03
2018-06-05T11:33:15.513Z,101415.14
2018-06-05T11:35:42.952Z,101413.66
2018-06-05T11:38:10.438Z,101419.33
2018-06-05T11:40:37.954Z,101419.95
2018-06-05T11:43:05.412Z,101411.09
2018-06-05T11:45:32.825Z,101408.16
2018-06-05T11:48:00.481Z,101400.68
2018-06-05T11:50:27.978Z,101402.02
2018-06-05T11:52:55.511Z,101399.14
2018-06-05T11:55:22.937Z,101401.34
2018-06-05T11:57:50.532Z,101400.11
2018-06-05T12:00:18.037Z,101400.30
2018-06-05T12:02:45.442Z,101394.62
2018-06-05T12:05:12.966Z,101399.19
2018-06-05T12:07:41.347Z,101389.75
2018-06-05T12:10:08.813Z,101390.63
2018-06-05T12:12:36.239Z,101393.48
2018-06-05T12:15:03.626Z,101386.30
2018-06-05T12:17:31.091Z,101386.95
2018-06-05T12:19:58.494Z,101381.30
2018-06-05T12:22:26.054Z,101373.66
2018-06-05T12:24:53.545Z,101373.16
2018-06-05T12:27:20.977Z,101371.44
2018-06-05T12:29:49.005Z,101370.41
2018-06-05T12:32:16.376Z,101365.05
2018-06-05T12:34:43.820Z,101362.27
2018-06-05T12:37:11.370Z,101369.06
2018-06-05T12:39:38.972Z,101368.77
2018-06-05T12:42:06.413Z,101361.77
2018-06-05T12:44:34.614Z,101366.03
2018-06-05T12:47:02.043Z,101360.19
2018-06-05T12:49:29.524Z,101367.12
2018-06-05T12:51:57.173Z,101365.91
2018-06-05T12:54:24.738Z,101369.34
2018-06-05T12:56:52.197Z,101367.00
2018-06-05T12:59:19.717Z,101361.70
2018-06-05T13:01:47.198Z,101357.02
2018-06-05T13:04:14.720Z,101361.00
2018-06-05T13:06:42.138Z,101351.59
2018-06-05T13:09:09.625Z,101353.11
2018-06-05T13:11:37.113Z,101357.38
2018-06-05T13:14:04.677Z,101350.91
2018-06-05T13:16:32.230Z,101350.80
2018-06-05T13:18:59.689Z,101356.48
2018-06-05T13:21:27.674Z,101352.70
2018-06-05T13:23:55.046Z,101351.84
2018-06-05T13:26:22.456Z,101351.45
2018-06-05T13:28:49.900Z,101343.31
2018-06-05T13:31:17.288Z,101345.43
2018-06-05T13:33:44.761Z,101347.67
2018-06-05T13:36:12.177Z,101346.69
2018-06-05T13:38:39.657Z,101352.83
2018-06-05T13:41:07.078Z,101356.25
2018-06-05T13:43:34.512Z,101355.14
2018-06-05T13:46:01.968Z,101356.00
2018-06-05T13:48:29.343Z,101343.15
2018-06-05T13:50:57.536Z,101349.77
2018-06-05T13:53:31.577Z,101343.83
2018-06-05T13:55:58.949Z,101345.14
2018-06-05T13:58:27.329Z,101351.45
2018-06-05T14:00:54.722Z,101340.71
2018-06-05T14:03:22.116Z,101339.78
2018-06-05T14:05:49.633Z,101331.23
2018-06-05T14:08:17.010Z,101329.84
2018-06-05T14:10:44.497Z,101335.15
2018-06-05T14:13:11.942Z,101333.48
2018-06-05T14:15:39.349Z,101332.45
2018-06-05T14:18:06.737Z,101337.57
2018-06-05T14:20:34.409Z,101334.08
2018-06-05T14:23:01.849Z,101333.56
2018-06-05T14:25:29.796Z,101332.42
2018-06-05T14:27:57.249Z,101325.06
2018-06-05T14:30:24.651Z,101324.95
2018-06-05T14:32:52.190Z,101333.24
2018-06-05T14:35:19.591Z,101327.98
2018-06-05T14:37:47.049Z,101320.25
2018-06-05T14:40:14.428Z,101322.05
2018-06-05T14:42:41.824Z,101319.21
2018-06-05T14:45:09.294Z,101320.88
2018-06-05T14:47:36.722Z,101311.43
2018-06-05T14:50:04.128Z,101312.02
2018-06-05T14:52:31.550Z,101316.08
2018-06-05T14:54:58.941Z,101316.48
2018-06-05T14:57:26.567Z,101316.38
2018-06-05T14:59:54.749Z,101322.23
2018-06-05T15:02:22.142Z,101315.19
2018-06-05T15:04:49.611Z,101307.62
2018-06-05T15:07:17.033Z,101312.06
2018-06-05T15:09:45.163Z,101315.91
2018-06-05T15:12:12.643Z,101307.56
2018-06-05T15:14:40.062Z,101300.63
2018-06-05T15:17:08.254Z,101305.31
2018-06-05T15:19:36.398Z,101304.45
2018-06-05T15:22:03.846Z,101300.12
2018-06-05T15:24:31.263Z,101306.04
2018-06-05T15:26:58.770Z,101301.19
2018-06-05T15:29:26.239Z,101299.69
2018-06-05T15:31:53.644Z,101297.48
2018-06-05T15:34:21.161Z,101292.62
2018-06-05T15:36:48.697Z,101290.65
2018-06-05T15:39:16.151Z,101293.93
2018-06-05T15:41:43.589Z,101285.89
2018-06-05T15:44:11.166Z,101286.59
2018-06-05T15:46:38.754Z,101286.48
2018-06-05T15:49:06.232Z,101291.64
2018-06-05T15:51:33.629Z,101289.09
2018-06-05T15:54:01.007Z,101277.53
2018-06-05T15:56:28.989Z,101284.80
2018-06-05T15:58:56.387Z,101284.44
2018-06-05T16:01:24.477Z,101282.22
2018-06-05T16:03:51.926Z,101274.77
2018-06-05T16:06:19.456Z,101280.95
2018-06-05T16:08:46.938Z,101282.91
2018-06-05T16:11:14.386Z,101286.86
2018-06-05T16:13:42.156Z,101285.46
2018-06-05T16:16:09.617Z,101282.25
2018-06-05T16:18:37.112Z,101280.80
2018-06-05T16:21:04.518Z,101286.78
2018-06-05T16:23:32.408Z,101277.30
2018-06-05T16:25:59.805Z,101280.42
2018-06-05T16:28:27.213Z,101278.64
2018-06-05T16:30:54.594Z,101273.87
2018-06-05T16:33:22.140Z,101273.78
2018-06-05T16:35:49.529Z,101277.85
2018-06-05T16:38:16.984Z,101267.98
2018-06-05T16:40:44.450Z,101268.61
2018-06-05T16:43:11.882Z,101260.67
2018-06-05T16:45:39.360Z,101268.39
2018-06-05T16:48:06.747Z,101263.65
2018-06-05T16:50:34.234Z,101256.62
2018-06-05T16:53:01.783Z,101258.99
2018-06-05T16:55:29.065Z,101262.02
2018-06-05T16:57:56.492Z,101259.66
2018-06-05T17:00:24.059Z,101253.44
2018-06-05T17:02:51.603Z,101252.97
2018-06-05T17:05:19.019Z,101242.97
2018-06-05T17:07:46.518Z,101248.30
2018-06-05T17:10:14.434Z,101253.32
2018-06-05T17:12:42.222Z,101249.80
2018-06-05T17:15:09.627Z,101245.17
2018-06-05T17:17:37.162Z,101244.38
2018-06-05T17:20:04.551Z,101240.20
2018-06-05T17:22:32.009Z,101243.23
2018-06-05T17:24:59.408Z,101249.38
2018-06-05T17:27:26.905Z,101246.34
2018-06-05T17:29:54.302Z,101236.70
2018-06-05T17:32:21.749Z,101237.80
2018-06-05T17:34:49.210Z,101234.60
2018-06-05T17:37:16.724Z,101234.91
2018-06-05T17:39:45.662Z,101228.62
2018-06-05T17:42:13.153Z,101233.58
2018-06-05T17:44:40.546Z,101234.09
2018-06-05T17:47:07.935Z,101236.38
2018-06-05T17:49:35.304Z,101234.25
2018-06-05T17:52:02.873Z,101228.19
2018-06-05T17:54:30.345Z,101229.59
2018-06-05T17:56:57.716Z,101236.34
2018-06-05T17:59:25.097Z,101243.94
2018-06-05T18:01:52.538Z,101236.30
2018-06-05T18:04:19.918Z,101236.63
2018-06-05T18:06:47.412Z,101236.09
2018-06-05T18:09:14.793Z,101239.63
2018-06-05T18:11:42.179Z,101241.22
2018-06-05T18:14:09.590Z,101243.95
2018-06-05T18:16:37.802Z,101246.89
2018-06-05T18:19:05.233Z,101249.08
2018-06-05T18:21:32.747Z,101249.95
2018-06-05T18:24:00.688Z,101251.05
2018-06-05T18:26:28.179Z,101256.28
2018-06-05T18:28:55.644Z,101252.84
2018-06-05T18:31:23.085Z,101260.56
2018-06-05T18:33:50.648Z,101246.41
2018-06-05T18:36:18.274Z,101260.97
2018-06-05T18:38:45.691Z,101259.55
2018-06-05T18:41:13.186Z,101266.31
2018-06-05T18:43:40.633Z,101269.56
2018-06-05T18:46:08.065Z,101275.24
2018-06-05T18:48:35.944Z,101271.52
2018-06-05T18:51:05.382Z,101279.41
2018-06-05T18:53:32.824Z,101280.87
2018-06-05T18:56:00.286Z,101277.13
2018-06-05T18:58:27.750Z,101276.08
2018-06-05T19:00:55.214Z,101283.00
2018-06-05T19:03:22.833Z,101281.72
2018-06-05T19:05:50.298Z,101294.27
2018-06-05T19:08:17.673Z,101294.83
2018-06-05T19:10:45.165Z,101290.38
2018-06-05T19:13:12.688Z,101290.81
2018-06-05T19:15:40.129Z,101292.64
2018-06-05T19:18:07.550Z,101297.82
2018-06-05T19:20:34.984Z,101304.80
2018-06-05T19:23:02.407Z,101296.83
2018-06-05T19:25:30.487Z,101307.41
2018-06-05T19:27:57.903Z,101302.66
2018-06-05T19:30:25.373Z,101310.09
2018-06-05T19:32:52.954Z,101314.36
2018-06-05T19:35:20.366Z,101317.73
2018-06-05T19:37:47.803Z,101310.30
2018-06-05T19:40:15.203Z,101310.64
2018-06-05T19:42:43.313Z,101307.27
2018-06-05T19:45:10.767Z,101308.28
2018-06-05T19:47:38.161Z,101306.19
2018-06-05T19:50:05.649Z,101309.72
2018-06-05T19:52:33.095Z,101317.64
2018-06-05T19:55:00.516Z,101309.88
2018-06-05T19:57:27.921Z,101310.55
2018-06-05T19:59:55.293Z,101300.02
2018-06-05T20:02:22.895Z,101306.42
2018-06-05T20:04:50.477Z,101298.67
2018-06-05T20:07:17.940Z,101300.84
2018-06-05T20:09:45.355Z,101307.09
2018-06-05T20:12:12.851Z,101306.94
2018-06-05T20:14:40.481Z,101310.81
2018-06-05T20:17:07.998Z,101310.98
2018-06-05T20:19:35.388Z,101314.34
2018-06-05T20:22:02.931Z,101316.70
2018-06-05T20:24:30.437Z,101320.56
2018-06-05T20:26:57.829Z,101318.03
2018-06-05T20:29:25.292Z,101316.70
2018-06-05T20:31:52.735Z,101319.55
2018-06-05T20:34:20.755Z,101319.06
2018-06-05T20:36:48.213Z,101320.61
2018-06-05T20:39:15.893Z,101323.42
2018-06-05T20:41:43.289Z,101322.12
2018-06-05T20:44:10.693Z,101322.45
2018-06-05T20:46:38.418Z,101321.61
2018-06-05T20:49:05.822Z,101321.25
2018-06-05T20:51:33.936Z,101330.32
2018-06-05T20:54:01.322Z,101330.35
2018-06-05T20:56:28.861Z,101327.63
2018-06-05T20:58:56.267Z,101331.33
2018-06-05T21:01:23.720Z,101332.20
2018-06-05T21:03:51.066Z,101332.54
2018-06-05T21:06:18.457Z,101337.24
2018-06-05T21:08:45.990Z,101335.73
2018-06-05T21:11:13.377Z,101333.17
2018-06-05T21:13:40.844Z,101332.70
2018-06-05T21:16:08.209Z,101329.52
2018-06-05T21:18:35.620Z,101334.05
2018-06-05T21:21:02.999Z,101336.06
2018-06-05T21:23:30.382Z,101337.08
2018-06-05T21:25:57.775Z,101331.19
2018-06-05T21:28:25.805Z,101338.59
2018-06-05T21:30:53.305Z,101337.41
2018-06-05T21:33:20.902Z,101331.86
2018-06-05T21:35:48.288Z,101331.70
2018-06-05T21:38:15.705Z,101330.35
2018-06-05T21:40:43.070Z,101338.41
2018-06-05T21:43:10.506Z,101332.03
2018-06-05T21:45:37.890Z,101339.76
2018-06-05T21:48:05.277Z,101337.74
2018-06-05T21:50:32.707Z,101342.78
2018-06-05T21:53:00.399Z,101349.84
2018-06-05T21:55:27.845Z,101354.88
2018-06-05T21:57:55.357Z,101352.19
2018-06-05T22:00:23.436Z,101343.45
2018-06-05T22:02:50.884Z,101349.52
2018-06-05T22:05:18.317Z,101345.97
2018-06-05T22:07:45.759Z,101342.44
2018-06-05T22:10:13.146Z,101349.50
2018-06-05T22:12:40.784Z,101348.83
2018-06-05T22:15:08.388Z,101348.32
2018-06-05T22:17:35.898Z,101350.67
2018-06-05T22:20:03.278Z,101353.87
2018-06-05T22:22:30.698Z,101349.52
2018-06-05T22:24:58.088Z,101347.15
2018-06-05T22:27:25.700Z,101336.91
2018-06-05T22:29:53.321Z,101335.07
2018-06-05T22:32:20.786Z,101339.42
2018-06-05T22:34:48.781Z,101335.23
2018-06-05T22:37:16.173Z,101337.41
2018-06-05T22:39:43.633Z,101339.43
2018-06-05T22:42:11.017Z,101340.11
2018-06-05T22:44:38.559Z,101336.89
2018-06-05T22:47:06.036Z,101327.84
2018-06-05T22:49:33.450Z,101332.19
2018-06-05T22:52:01.011Z,101330.52
2018-06-05T22:54:28.402Z,101331.87
2018-06-05T22:56:55.810Z,101337.91
2018-06-05T22:59:23.186Z,101336.40
2018-06-05T23:01:50.557Z,101333.55
2018-06-05T23:04:18.041Z,101333.55
2018-06-05T23:06:45.507Z,101332.36
2018-06-05T23:09:12.912Z,101340.26
2018-06-05T23:11:40.446Z,101336.23
2018-06-05T23:14:07.834Z,101338.39
2018-06-05T23:16:35.234Z,101337.39
2018-06-05T23:19:02.600Z,101335.06
2018-06-05T23:21:30.800Z,101344.27
2018-06-05T23:23:58.254Z,101331.67
2018-06-05T23:26:25.677Z,101333.02
2018-06-05T23:28:53.537Z,101327.81
2018-06-05T23:31:20.926Z,101323.30
2018-06-05T23:33:48.397Z,101326.48
2018-06-05T23:36:15.765Z,101327.66
2018-06-05T23:38:43.146Z,101327.66
2018-06-05T23:41:10.690Z,101325.13
2018-06-05T23:43:38.084Z,101323.13
2018-06-05T23:46:05.493Z,101321.27
2018-06-05T23:48:32.880Z,101327.81
2018-06-05T23:51:00.266Z,101323.95
2018-06-05T23:53:27.995Z,101325.96
2018-06-05T23:55:55.528Z,101317.55
2018-06-05T23:58:22.908Z,101319.91
